createdAt,value
2018-03-29T00:01:54.531Z,14.93
2018-03-29T00:04:22.011Z,13.53
2018-03-29T00:06:49.463Z,16.60
2018-03-29T00:09:16.901Z,14.53
2018-03-29T00:11:45.531Z,13.20
2018-03-29T00:14:13.386Z,14.63
2018-03-29T00:16:40.823Z,13.43
2018-03-29T00:19:08.708Z,12.53
2018-03-29T00:21:36.931Z,12.70
2018-03-29T00:24:04.796Z,14.00
2018-03-29T00:26:33.015Z,13.30
2018-03-29T00:29:00.882Z,13.40
2018-03-29T00:31:28.736Z,13.10
2018-03-29T00:33:56.571Z,12.00
2018-03-29T00:36:24.799Z,12.60
2018-03-29T00:38:52.651Z,12.50
2018-03-29T00:41:20.092Z,12.67
2018-03-29T00:43:47.530Z,14.17
2018-03-29T00:46:14.981Z,13.33
2018-03-29T00:48:43.188Z,13.47
2018-03-29T00:51:11.448Z,13.30
2018-03-29T00:53:45.497Z,14.37
2018-03-29T00:56:12.947Z,13.60
2018-03-29T00:58:41.163Z,14.27
2018-03-29T01:01:08.612Z,15.00
2018-03-29T01:03:36.082Z,12.57
2018-03-29T01:06:03.562Z,12.40
2018-03-29T01:08:32.792Z,12.57
2018-03-29T01:11:00.275Z,12.73
2018-03-29T01:13:27.728Z,11.23
2018-03-29T01:15:55.175Z,12.13
2018-03-29T01:18:22.677Z,11.90
2018-03-29T01:20:50.373Z,13.03
2018-03-29T01:23:17.852Z,13.67
2018-03-29T01:25:45.349Z,12.87
2018-03-29T01:28:12.795Z,12.70
2018-03-29T01:30:41.007Z,11.97
2018-03-29T01:33:08.490Z,13.70
2018-03-29T01:35:35.947Z,12.43
2018-03-29T01:38:03.407Z,13.00
2018-03-29T01:40:30.897Z,13.20
2018-03-29T01:42:58.343Z,13.87
2018-03-29T01:45:25.831Z,14.90
2018-03-29T01:47:53.291Z,14.20
2018-03-29T01:50:20.747Z,13.70
2018-03-29T01:52:48.191Z,12.40
2018-03-29T01:55:16.415Z,14.20
2018-03-29T01:57:43.880Z,13.83
2018-03-29T02:00:11.331Z,12.67
2018-03-29T02:02:38.795Z,13.00
2018-03-29T02:05:06.270Z,14.40
2018-03-29T02:07:34.851Z,13.10
2018-03-29T02:10:03.048Z,14.50
2018-03-29T02:12:30.501Z,13.10
2018-03-29T02:14:58.739Z,14.80
2018-03-29T02:17:26.211Z,15.07
2018-03-29T02:19:53.651Z,14.90
2018-03-29T02:22:21.130Z,14.80
2018-03-29T02:24:48.583Z,14.30
2018-03-29T02:27:16.561Z,13.30
2018-03-29T02:29:44.447Z,15.43
2018-03-29T02:32:11.878Z,14.47
2018-03-29T02:34:40.104Z,14.37
2018-03-29T02:37:07.585Z,14.57
2018-03-29T02:39:35.045Z,14.90
2018-03-29T02:42:02.514Z,13.87
2018-03-29T02:44:29.977Z,15.63
2018-03-29T02:46:57.414Z,14.80
2018-03-29T02:49:25.268Z,14.87
2018-03-29T02:51:52.711Z,17.20
2018-03-29T02:54:20.200Z,16.90
2018-03-29T02:56:47.668Z,15.43
2018-03-29T02:59:15.141Z,15.43
2018-03-29T03:01:42.578Z,15.23
2018-03-29T03:04:10.040Z,13.40
2018-03-29T03:06:37.498Z,15.30
2018-03-29T03:09:05.672Z,16.10
2018-03-29T03:11:33.128Z,16.43
2018-03-29T03:14:00.588Z,16.50
2018-03-29T03:16:28.070Z,16.57
2018-03-29T03:18:55.575Z,16.07
2018-03-29T03:21:23.015Z,17.70
2018-03-29T03:23:50.467Z,15.63
2018-03-29T03:26:17.923Z,15.70
2018-03-29T03:28:46.244Z,14.80
2018-03-29T03:31:13.677Z,13.77
2018-03-29T03:33:41.266Z,15.57
2018-03-29T03:36:09.209Z,14.63
2018-03-29T03:38:36.681Z,15.20
2018-03-29T03:41:04.127Z,15.73
2018-03-29T03:43:31.604Z,17.80
2018-03-29T03:45:59.074Z,16.63
2018-03-29T03:48:26.544Z,16.37
2018-03-29T03:50:53.986Z,16.23
2018-03-29T03:53:21.476Z,15.13
2018-03-29T03:55:48.991Z,16.53
2018-03-29T03:58:17.250Z,16.10
2018-03-29T04:00:45.460Z,16.50
2018-03-29T04:03:12.932Z,16.00
2018-03-29T04:05:40.446Z,16.80
2018-03-29T04:08:07.900Z,17.10
2018-03-29T04:10:35.384Z,17.00
2018-03-29T04:13:02.882Z,16.37
2018-03-29T04:15:31.095Z,17.70
2018-03-29T04:17:58.592Z,16.80
2018-03-29T04:20:26.052Z,17.40
2018-03-29T04:22:53.503Z,18.57
2018-03-29T04:25:21.013Z,17.73
2018-03-29T04:27:48.564Z,18.20
2018-03-29T04:30:16.037Z,16.70
2018-03-29T04:32:43.495Z,17.93
2018-03-29T04:35:10.953Z,16.70
2018-03-29T04:37:38.416Z,20.30
2018-03-29T04:40:05.973Z,17.57
2018-03-29T04:42:33.496Z,19.40
2018-03-29T04:45:00.993Z,18.00
2018-03-29T04:47:28.589Z,18.17
2018-03-29T04:49:56.093Z,18.80
2018-03-29T04:52:23.523Z,16.80
2018-03-29T04:54:51.890Z,17.17
2018-03-29T04:57:19.332Z,17.87
2018-03-29T04:59:46.767Z,18.30
2018-03-29T05:02:15.281Z,19.37
2018-03-29T05:04:42.776Z,19.87
2018-03-29T05:07:10.240Z,18.67
2018-03-29T05:09:37.695Z,21.47
2018-03-29T05:12:05.150Z,20.13
2018-03-29T05:14:32.585Z,18.20
2018-03-29T05:17:00.885Z,20.10
2018-03-29T05:19:28.383Z,20.43
2018-03-29T05:21:55.849Z,19.70
2018-03-29T05:24:23.765Z,19.97
2018-03-29T05:26:51.246Z,20.53
2018-03-29T05:29:19.532Z,21.20
2018-03-29T05:31:49.261Z,19.03
2018-03-29T05:34:16.799Z,19.83
2018-03-29T05:36:44.264Z,19.87
2018-03-29T05:39:11.775Z,21.90
2018-03-29T05:44:42.632Z,18.97
2018-03-29T05:47:10.839Z,15.67
2018-03-29T05:49:54.655Z,19.20
2018-03-29T05:52:22.140Z,16.43
2018-03-29T05:54:49.562Z,17.57
2018-03-29T05:57:21.742Z,19.27
2018-03-29T05:59:49.343Z,18.57
2018-03-29T06:02:16.992Z,18.20
2018-03-29T06:04:44.468Z,16.60
2018-03-29T06:07:11.989Z,17.57
2018-03-29T06:09:39.550Z,18.17
2018-03-29T06:12:07.763Z,16.60
2018-03-29T06:14:40.909Z,15.37
2018-03-29T06:17:09.145Z,15.90
2018-03-29T06:19:36.634Z,15.17
2018-03-29T06:22:04.103Z,17.50
2018-03-29T06:24:48.368Z,15.97
2018-03-29T06:27:16.183Z,15.70
2018-03-29T06:29:49.592Z,17.17
2018-03-29T06:32:17.043Z,16.57
2018-03-29T06:34:47.793Z,16.23
2018-03-29T06:37:15.265Z,17.17
2018-03-29T06:39:42.719Z,16.93
2018-03-29T06:42:10.559Z,17.30
2018-03-29T06:44:38.035Z,15.57
2018-03-29T06:47:06.261Z,16.83
2018-03-29T06:49:46.742Z,17.63
2018-03-29T06:52:14.187Z,16.60
2018-03-29T06:54:41.630Z,16.40
2018-03-29T06:57:09.863Z,17.63
2018-03-29T06:59:37.319Z,15.73
2018-03-29T07:02:04.764Z,17.90
2018-03-29T07:04:32.235Z,16.80
2018-03-29T07:10:08.957Z,16.60
2018-03-29T07:12:49.396Z,17.40
2018-03-29T07:15:16.855Z,16.90
2018-03-29T07:17:44.397Z,16.53
2018-03-29T07:20:17.958Z,16.97
2018-03-29T07:22:45.400Z,18.10
2018-03-29T07:25:12.837Z,16.30
2018-03-29T07:27:40.282Z,15.30
2018-03-29T07:30:07.734Z,14.97
2018-03-29T07:32:47.812Z,14.60
2018-03-29T07:35:15.263Z,13.80
2018-03-29T07:37:42.711Z,14.90
2018-03-29T07:40:10.174Z,16.50
2018-03-29T07:45:31.568Z,14.47
2018-03-29T07:47:59.034Z,15.37
2018-03-29T07:50:26.480Z,16.03
2018-03-29T07:52:53.931Z,15.77
2018-03-29T07:55:45.708Z,15.20
2018-03-29T07:58:13.244Z,15.37
2018-03-29T08:00:46.759Z,16.00
2018-03-29T08:06:07.746Z,14.00
2018-03-29T08:08:35.222Z,16.07
2018-03-29T08:11:02.690Z,13.67
2018-03-29T08:13:30.163Z,15.30
2018-03-29T08:15:57.629Z,15.10
2018-03-29T08:18:25.466Z,13.93
2018-03-29T08:21:03.180Z,15.37
2018-03-29T08:23:47.276Z,14.37
2018-03-29T08:26:14.735Z,12.97
2018-03-29T08:28:42.602Z,13.40
2018-03-29T08:31:10.049Z,12.43
2018-03-29T08:33:37.512Z,11.40
2018-03-29T08:36:04.973Z,13.97
2018-03-29T08:38:33.194Z,11.00
2018-03-29T08:41:00.646Z,8.57
2018-03-29T08:43:28.071Z,7.10
2018-03-29T08:46:17.408Z,6.13
2018-03-29T08:48:45.227Z,5.70
2018-03-29T08:51:13.457Z,7.37
2018-03-29T08:53:40.918Z,5.53
2018-03-29T08:56:08.359Z,6.10
2018-03-29T08:58:35.814Z,6.97
2018-03-29T09:01:03.254Z,7.30
2018-03-29T09:03:47.627Z,6.90
2018-03-29T09:09:19.504Z,6.50
2018-03-29T09:14:47.731Z,6.10
2018-03-29T09:17:15.179Z,5.90
2018-03-29T09:19:49.186Z,5.50
2018-03-29T09:22:17.393Z,5.80
2018-03-29T09:24:48.115Z,4.60
2018-03-29T09:27:17.863Z,6.40
2018-03-29T09:29:45.281Z,6.47
2018-03-29T09:32:19.636Z,7.40
2018-03-29T09:34:47.067Z,7.13
2018-03-29T09:37:14.519Z,8.03
2018-03-29T09:39:41.981Z,7.97
2018-03-29T09:42:09.434Z,8.53
2018-03-29T09:44:37.688Z,6.80
2018-03-29T09:47:05.136Z,6.47
2018-03-29T09:49:47.122Z,6.33
2018-03-29T09:52:14.580Z,6.40
2018-03-29T09:54:42.064Z,6.43
2018-03-29T09:57:09.515Z,6.73
2018-03-29T09:59:37.371Z,5.77
2018-03-29T10:02:10.425Z,5.50
2018-03-29T10:10:29.963Z,4.80
2018-03-29T10:12:57.431Z,4.70
2018-03-29T10:15:30.852Z,5.50
2018-03-29T10:17:58.487Z,4.17
2018-03-29T10:20:25.931Z,3.50
2018-03-29T10:22:54.170Z,3.30
2018-03-29T10:25:21.599Z,3.30
2018-03-29T10:28:06.199Z,3.40
2018-03-29T10:30:33.642Z,3.90
2018-03-29T10:33:17.953Z,3.10
2018-03-29T10:41:52.638Z,3.70
2018-03-29T10:44:20.115Z,4.80
2018-03-29T10:46:47.579Z,4.60
2018-03-29T10:49:15.029Z,4.30
2018-03-29T10:51:42.547Z,5.00
2018-03-29T10:54:10.648Z,4.47
2018-03-29T10:56:38.953Z,3.60
2018-03-29T10:59:20.856Z,4.10
2018-03-29T11:01:48.827Z,3.90
2018-03-29T11:04:17.041Z,3.60
2018-03-29T11:06:44.541Z,4.07
2018-03-29T11:09:13.380Z,4.10
2018-03-29T11:11:42.894Z,4.00
2018-03-29T11:14:13.471Z,4.10
2018-03-29T11:16:41.004Z,3.70
2018-03-29T11:19:08.506Z,3.90
2018-03-29T11:21:36.028Z,4.00
2018-03-29T11:24:15.542Z,3.97
2018-03-29T11:26:43.549Z,4.33
2018-03-29T11:29:11.068Z,2.87
2018-03-29T11:31:40.112Z,2.80
2018-03-29T11:34:08.717Z,2.70
2018-03-29T11:39:16.209Z,3.10
2018-03-29T11:41:43.686Z,3.03
2018-03-29T11:44:11.211Z,3.03
2018-03-29T11:46:39.801Z,2.60
2018-03-29T11:49:07.278Z,3.07
2018-03-29T11:51:34.781Z,3.10
2018-03-29T11:56:47.242Z,3.50
2018-03-29T11:59:14.750Z,3.53
2018-03-29T12:01:42.605Z,3.13
2018-03-29T12:04:10.111Z,3.30
2018-03-29T12:06:37.706Z,3.13
2018-03-29T12:09:06.748Z,2.43
2018-03-29T12:11:35.535Z,2.30
2018-03-29T12:14:03.373Z,1.63
2018-03-29T12:16:31.511Z,1.57
2018-03-29T12:19:01.719Z,1.93
2018-03-29T12:21:33.102Z,2.10
2018-03-29T12:24:04.248Z,2.20
2018-03-29T12:26:32.595Z,1.40
2018-03-29T12:29:01.472Z,1.73
2018-03-29T12:31:30.770Z,1.27
2018-03-29T12:34:00.473Z,1.20
2018-03-29T12:36:27.972Z,2.10
2018-03-29T12:46:12.567Z,1.40
2018-03-29T12:48:40.919Z,1.17
2018-03-29T12:51:10.743Z,1.37
2018-03-29T12:53:46.428Z,1.10
2018-03-29T12:56:36.450Z,1.73
2018-03-29T12:59:04.358Z,2.07
2018-03-29T13:01:31.925Z,1.90
2018-03-29T13:03:59.371Z,1.70
2018-03-29T13:06:26.840Z,2.00
2018-03-29T13:08:54.533Z,2.63
2018-03-29T13:11:22.412Z,2.87
2018-03-29T13:13:50.279Z,2.00
2018-03-29T13:16:17.724Z,3.87
2018-03-29T13:18:47.208Z,3.10
2018-03-29T13:21:14.678Z,2.63
2018-03-29T13:23:42.147Z,2.63
2018-03-29T13:29:03.004Z,1.93
2018-03-29T13:31:30.859Z,1.90
2018-03-29T13:33:58.388Z,1.80
2018-03-29T13:36:28.960Z,2.00
2018-03-29T13:38:56.627Z,1.80
2018-03-29T13:41:24.059Z,1.73
2018-03-29T13:43:51.523Z,1.60
2018-03-29T13:46:19.815Z,1.63
2018-03-29T13:48:48.058Z,1.77
2018-03-29T15:46:46.408Z,3.80
2018-03-29T15:49:16.583Z,3.17
2018-03-29T15:51:44.800Z,3.33
2018-03-29T15:54:12.280Z,3.47
2018-03-29T15:56:40.196Z,4.47
2018-03-29T15:59:07.711Z,3.70
2018-03-29T16:01:35.654Z,4.40
2018-03-29T16:04:03.210Z,4.23
2018-03-29T16:06:30.729Z,3.70
2018-03-29T16:08:59.419Z,3.60
2018-03-29T16:11:27.143Z,3.70
2018-03-29T16:13:54.628Z,3.70
2018-03-29T16:16:22.222Z,3.50
2018-03-29T16:18:49.678Z,4.17
2018-03-29T16:21:17.120Z,3.33
2018-03-29T16:23:44.652Z,3.30
2018-03-29T16:26:12.228Z,3.60
2018-03-29T16:28:39.716Z,4.73
2018-03-29T16:31:07.197Z,4.60
2018-03-29T16:33:35.039Z,4.13
2018-03-29T16:36:02.535Z,4.00
2018-03-29T16:38:30.044Z,4.00
2018-03-29T16:40:57.565Z,4.03
2018-03-29T16:43:25.016Z,3.30
2018-03-29T16:45:52.984Z,3.47
2018-03-29T16:48:21.206Z,3.37
2018-03-29T16:50:48.720Z,3.13
2018-03-29T16:53:16.980Z,3.20
2018-03-29T16:55:44.471Z,2.93
2018-03-29T16:58:11.955Z,3.60
2018-03-29T17:00:40.194Z,3.43
2018-03-29T17:03:07.676Z,3.40
2018-03-29T17:05:35.589Z,3.90
2018-03-29T17:08:03.104Z,4.60
2018-03-29T17:10:30.556Z,4.03
2018-03-29T17:12:57.986Z,4.13
2018-03-29T17:15:25.495Z,4.50
2018-03-29T17:17:53.415Z,3.97
2018-03-29T17:20:20.867Z,3.93
2018-03-29T17:22:48.756Z,3.77
2018-03-29T17:25:17.002Z,3.53
2018-03-29T17:27:44.519Z,4.00
2018-03-29T17:30:11.974Z,3.77
2018-03-29T17:32:39.476Z,4.37
2018-03-29T17:35:07.760Z,4.57
2018-03-29T17:37:35.210Z,3.50
2018-03-29T17:40:02.644Z,4.60
2018-03-29T17:42:30.090Z,3.93
2018-03-29T17:44:57.596Z,4.00
2018-03-29T17:47:25.051Z,3.90
2018-03-29T17:49:52.499Z,4.00
2018-03-29T17:52:20.018Z,4.40
2018-03-29T17:54:47.467Z,4.47
2018-03-29T17:57:15.330Z,3.73
2018-03-29T17:59:42.836Z,3.17
2018-03-29T18:02:10.312Z,3.83
2018-03-29T18:04:38.573Z,3.57
2018-03-29T18:07:06.518Z,3.47
2018-03-29T18:09:33.947Z,3.80
2018-03-29T18:12:01.403Z,4.13
2018-03-29T18:14:28.843Z,3.47
2018-03-29T18:16:56.299Z,3.50
2018-03-29T18:19:23.755Z,3.90
2018-03-29T18:21:51.216Z,3.47
2018-03-29T18:24:18.781Z,4.20
2018-03-29T18:26:47.310Z,4.07
2018-03-29T18:29:15.557Z,3.40
2018-03-29T18:31:43.860Z,4.27
2018-03-29T18:34:12.055Z,3.70
2018-03-29T18:36:39.793Z,4.40
2018-03-29T18:39:07.411Z,3.27
2018-03-29T18:41:37.179Z,4.80
2018-03-29T18:44:05.042Z,5.70
2018-03-29T18:46:32.564Z,4.50
2018-03-29T18:49:00.205Z,3.90
2018-03-29T18:51:27.882Z,3.30
2018-03-29T18:53:55.560Z,4.43
2018-03-29T18:56:23.875Z,3.57
2018-03-29T18:58:53.083Z,3.53
2018-03-29T19:01:20.941Z,4.03
2018-03-29T19:03:48.475Z,3.90
2018-03-29T19:06:17.419Z,5.13
2018-03-29T19:08:44.900Z,3.47
2018-03-29T19:11:12.354Z,3.40
2018-03-29T19:13:40.563Z,3.43
2018-03-29T19:19:06.238Z,3.40
2018-03-29T19:21:46.793Z,3.80
2018-03-29T19:26:59.381Z,4.60
2018-03-29T19:29:26.827Z,4.13
2018-03-29T19:31:55.047Z,4.20
2018-03-29T19:34:45.453Z,5.27
2018-03-29T19:37:13.688Z,6.00
2018-03-29T19:39:41.120Z,6.17
2018-03-29T19:42:08.641Z,7.10
2018-03-29T19:44:37.131Z,6.73
2018-03-29T19:47:05.500Z,5.03
2018-03-29T19:49:33.737Z,5.90
2018-03-29T19:52:04.304Z,5.27
2018-03-29T19:54:38.124Z,4.37
2018-03-29T19:57:06.411Z,5.20
2018-03-29T19:59:34.744Z,4.27
2018-03-29T20:02:02.322Z,4.20
2018-03-29T20:07:22.297Z,4.43
2018-03-29T20:09:49.731Z,4.03
2018-03-29T20:12:17.183Z,3.83
2018-03-29T20:14:45.593Z,4.63
2018-03-29T20:17:13.858Z,5.33
2018-03-29T20:19:42.138Z,4.00
2018-03-29T20:22:09.595Z,5.43
2018-03-29T20:24:39.436Z,4.90
2018-03-29T20:27:07.129Z,6.33
2018-03-29T20:29:36.637Z,6.33
2018-03-29T20:32:04.984Z,7.43
2018-03-29T20:37:14.809Z,6.47
2018-03-29T20:39:42.652Z,5.77
2018-03-29T20:42:10.876Z,6.67
2018-03-29T20:44:38.332Z,6.90
2018-03-29T20:47:05.779Z,8.23
2018-03-29T20:49:33.253Z,8.20
2018-03-29T20:52:01.835Z,7.37
2018-03-29T20:54:30.671Z,10.77
2018-03-29T20:56:58.555Z,13.97
2018-03-29T20:59:26.445Z,13.13
2018-03-29T21:01:53.973Z,13.67
2018-03-29T21:04:23.566Z,12.20
2018-03-29T21:06:51.597Z,7.67
2018-03-29T21:09:19.326Z,7.03
2018-03-29T21:11:46.833Z,9.93
2018-03-29T21:14:14.310Z,7.63
2018-03-29T21:16:41.745Z,7.40
2018-03-29T21:19:10.310Z,7.33
2018-03-29T21:21:39.296Z,8.03
2018-03-29T21:24:07.196Z,6.70
2018-03-29T21:26:34.635Z,7.97
2018-03-29T21:29:03.833Z,6.00
2018-03-29T21:31:33.632Z,5.93
2018-03-29T21:34:01.875Z,8.90
2018-03-29T21:36:29.458Z,17.80
2018-03-29T21:38:57.721Z,21.77
2018-03-29T21:41:49.262Z,13.57
2018-03-29T21:44:16.755Z,13.07
2018-03-29T21:46:44.258Z,6.40
2018-03-29T21:49:12.172Z,8.33
2018-03-29T21:51:39.679Z,11.30
2018-03-29T21:54:07.172Z,9.27
2018-03-29T21:56:35.448Z,7.10
2018-03-29T21:59:03.169Z,10.23
2018-03-29T22:01:31.391Z,17.20
2018-03-29T22:03:58.850Z,17.20
2018-03-29T22:06:26.323Z,8.93
2018-03-29T22:08:53.807Z,9.07
2018-03-29T22:11:21.264Z,7.87
2018-03-29T22:13:50.552Z,5.90
2018-03-29T22:16:18.071Z,6.47
2018-03-29T22:18:46.364Z,5.60
2018-03-29T22:21:13.877Z,5.37
2018-03-29T22:23:42.303Z,5.60
2018-03-29T22:26:10.554Z,6.13
2018-03-29T22:28:37.993Z,5.23
2018-03-29T22:31:06.722Z,5.60
2018-03-29T22:33:34.305Z,5.50
2018-03-29T22:36:04.902Z,6.03
2018-03-29T22:38:32.442Z,5.60
2018-03-29T22:43:32.935Z,5.23
2018-03-29T22:46:00.587Z,5.80
2018-03-29T22:48:28.132Z,5.80
2018-03-29T22:50:56.347Z,5.80
2018-03-29T22:53:24.546Z,6.17
2018-03-29T22:55:52.761Z,6.67
2018-03-29T22:58:20.991Z,6.97
2018-03-29T23:00:48.464Z,5.73
2018-03-29T23:03:15.954Z,7.60
2018-03-29T23:05:43.465Z,7.83
2018-03-29T23:08:11.055Z,6.40
2018-03-29T23:10:38.645Z,5.70
2018-03-29T23:13:06.611Z,5.50
2018-03-29T23:15:34.127Z,4.37
2018-03-29T23:18:01.664Z,5.50
2018-03-29T23:20:29.192Z,5.33
2018-03-29T23:22:57.586Z,5.60
2018-03-29T23:25:26.142Z,5.40
2018-03-29T23:27:54.346Z,5.10
2018-03-29T23:30:21.938Z,5.50
2018-03-29T23:32:49.344Z,5.50
2018-03-29T23:35:16.861Z,6.00
2018-03-29T23:37:44.756Z,5.00
2018-03-29T23:40:12.220Z,5.37
2018-03-29T23:42:39.710Z,4.90
2018-03-29T23:45:07.215Z,5.37
2018-03-29T23:47:35.455Z,5.20
2018-03-29T23:50:02.963Z,5.13
2018-03-29T23:52:31.202Z,5.63
2018-03-29T23:55:03.912Z,5.03
2018-03-29T23:57:32.200Z,4.73
2018-03-29T23:59:59.659Z,5.30
